Terminal Aerodrome Forecast
Issued by NWS

Home | Current Version | Previous Version | Text Only | Print | Product List | Glossary On
Versions: 1 2 3 4 5 6 7 8 9 10 11 12 13 14 15 16 17 18 19 20 21
000
FTAK31 PAJN 240903 AAA
TAFAPG
TAF AMD
PAPG 240903Z 2409/2506 16006KT P6SM SCT008 SCT010 OVC035
     FM241200 18006KT P6SM SCT006 BKN015 OVC020
      TEMPO 2412/2416 3SM RA BR SCT004 OVC010
     FM241800 VRB04KT P6SM -SHRA SCT006 SCT015 OVC035
     FM242200 24004KT P6SM VCSH SCT020 BKN040 BKN060
      AMD LTD TO CLD VIS AND WIND TIL 241500=

USA.gov is the U.S. government's official web portal to all federal, state and local government web resources and services.